sensor_id;sensor_type;location;lat;lon;timestamp;pressure;altitude;pressure_sealevel;temperature;humidity
1694;BME280;71975;47.068;15.408;2023-09-19T00:01:08;96843.50;;;24.30;72.49
1694;BME280;71975;47.068;15.408;2023-09-19T00:06:12;96853.16;;;23.96;74.75
1694;BME280;71975;47.068;15.408;2023-09-19T00:11:18;96849.63;;;24.12;73.91
1694;BME280;71975;47.068;15.408;2023-09-19T00:16:21;96847.09;;;24.14;70.81
1694;BME280;71975;47.068;15.408;2023-09-19T00:21:24;96845.78;;;24.26;70.38
1694;BME280;71975;47.068;15.408;2023-09-19T00:26:31;96841.78;;;24.21;68.88
1694;BME280;71975;47.068;15.408;2023-09-19T00:31:36;96844.28;;;24.25;68.12
1694;BME280;71975;47.068;15.408;2023-09-19T00:36:39;96838.25;;;24.21;68.37
1694;BME280;71975;47.068;15.408;2023-09-19T00:41:46;96836.03;;;24.14;69.34
1694;BME280;71975;47.068;15.408;2023-09-19T00:46:49;96852.09;;;24.15;68.94
1694;BME280;71975;47.068;15.408;2023-09-19T00:51:53;96856.09;;;24.20;68.95
1694;BME280;71975;47.068;15.408;2023-09-19T00:56:59;96844.84;;;24.01;70.99
1694;BME280;71975;47.068;15.408;2023-09-19T01:02:02;96853.16;;;23.96;71.18
1694;BME280;71975;47.068;15.408;2023-09-19T01:07:07;96849.38;;;23.93;69.76
1694;BME280;71975;47.068;15.408;2023-09-19T01:12:16;96854.66;;;23.97;70.39
1694;BME280;71975;47.068;15.408;2023-09-19T01:17:26;96865.50;;;23.95;70.36
1694;BME280;71975;47.068;15.408;2023-09-19T01:22:37;96858.44;;;23.94;70.75
1694;BME280;71975;47.068;15.408;2023-09-19T01:28:08;96854.91;;;23.93;69.55
1694;BME280;71975;47.068;15.408;2023-09-19T01:33:19;96855.22;;;23.78;72.15
1694;BME280;71975;47.068;15.408;2023-09-19T01:38:22;96847.72;;;23.73;72.65
1694;BME280;71975;47.068;15.408;2023-09-19T01:43:28;96849.69;;;23.78;71.14
1694;BME280;71975;47.068;15.408;2023-09-19T01:48:38;96843.38;;;23.89;68.18
1694;BME280;71975;47.068;15.408;2023-09-19T01:53:45;96861.44;;;23.96;66.74
1694;BME280;71975;47.068;15.408;2023-09-19T01:58:56;96852.16;;;23.99;65.22
1694;BME280;71975;47.068;15.408;2023-09-19T02:04:04;96861.19;;;24.05;64.81
1694;BME280;71975;47.068;15.408;2023-09-19T02:09:07;96874.84;;;23.81;67.71
1694;BME280;71975;47.068;15.408;2023-09-19T02:14:10;96871.56;;;23.82;67.46
1694;BME280;71975;47.068;15.408;2023-09-19T02:19:14;96884.63;;;23.87;61.63
1694;BME280;71975;47.068;15.408;2023-09-19T02:24:18;96886.63;;;23.92;59.06
1694;BME280;71975;47.068;15.408;2023-09-19T02:29:21;96888.84;;;24.05;57.27
1694;BME280;71975;47.068;15.408;2023-09-19T02:34:26;96893.63;;;24.04;56.44
1694;BME280;71975;47.068;15.408;2023-09-19T02:39:29;96899.91;;;24.10;56.35
1694;BME280;71975;47.068;15.408;2023-09-19T02:44:32;96900.44;;;23.98;55.96
1694;BME280;71975;47.068;15.408;2023-09-19T02:49:36;96903.91;;;24.04;55.40
1694;BME280;71975;47.068;15.408;2023-09-19T02:54:39;96919.56;;;23.90;55.35
1694;BME280;71975;47.068;15.408;2023-09-19T02:59:45;96928.09;;;23.92;54.79
1694;BME280;71975;47.068;15.408;2023-09-19T03:04:49;96946.16;;;23.93;54.17
1694;BME280;71975;47.068;15.408;2023-09-19T03:09:53;96946.44;;;23.95;54.54
1694;BME280;71975;47.068;15.408;2023-09-19T03:14:56;96952.22;;;23.92;55.57
1694;BME280;71975;47.068;15.408;2023-09-19T03:20:02;96939.16;;;23.98;53.31
1694;BME280;71975;47.068;15.408;2023-09-19T03:25:07;96958.97;;;24.02;53.42
1694;BME280;71975;47.068;15.408;2023-09-19T03:30:10;96963.00;;;24.01;54.80
1694;BME280;71975;47.068;15.408;2023-09-19T03:35:17;96965.28;;;24.02;52.70
1694;BME280;71975;47.068;15.408;2023-09-19T03:40:20;96970.56;;;23.89;52.64
1694;BME280;71975;47.068;15.408;2023-09-19T03:45:23;96967.56;;;23.82;54.24
1694;BME280;71975;47.068;15.408;2023-09-19T03:50:28;96969.56;;;23.48;56.67
1694;BME280;71975;47.068;15.408;2023-09-19T03:55:31;96971.84;;;23.38;58.19
1694;BME280;71975;47.068;15.408;2023-09-19T04:00:34;96971.00;;;23.04;61.65
1694;BME280;71975;47.068;15.408;2023-09-19T04:05:41;96973.47;;;22.86;63.79
1694;BME280;71975;47.068;15.408;2023-09-19T04:10:44;96984.19;;;22.62;66.13
1694;BME280;71975;47.068;15.408;2023-09-19T04:15:47;96993.47;;;22.64;66.44
1694;BME280;71975;47.068;15.408;2023-09-19T04:20:52;96994.06;;;22.90;63.99
1694;BME280;71975;47.068;15.408;2023-09-19T04:25:55;97013.34;;;22.85;64.94
1694;BME280;71975;47.068;15.408;2023-09-19T04:30:58;97016.38;;;22.81;64.75
1694;BME280;71975;47.068;15.408;2023-09-19T04:36:03;97021.34;;;22.72;65.14
1694;BME280;71975;47.068;15.408;2023-09-19T04:41:28;97026.00;;;22.55;67.38
1694;BME280;71975;47.068;15.408;2023-09-19T04:46:31;97029.03;;;22.57;66.56
1694;BME280;71975;47.068;15.408;2023-09-19T04:51:36;97027.75;;;22.58;66.32
1694;BME280;71975;47.068;15.408;2023-09-19T04:56:39;97039.88;;;22.66;65.69
1694;BME280;71975;47.068;15.408;2023-09-19T05:01:42;97051.69;;;22.29;67.13
1694;BME280;71975;47.068;15.408;2023-09-19T05:06:47;97053.91;;;22.25;69.03
1694;BME280;71975;47.068;15.408;2023-09-19T05:11:50;97053.25;;;22.41;65.97
1694;BME280;71975;47.068;15.408;2023-09-19T05:16:54;97055.81;;;22.51;66.14
1694;BME280;71975;47.068;15.408;2023-09-19T05:21:58;97073.81;;;22.40;67.57
1694;BME280;71975;47.068;15.408;2023-09-19T05:27:01;97069.56;;;22.39;68.43
1694;BME280;71975;47.068;15.408;2023-09-19T05:32:05;97068.28;;;22.40;69.04
1694;BME280;71975;47.068;15.408;2023-09-19T05:37:10;97080.84;;;22.41;70.48
1694;BME280;71975;47.068;15.408;2023-09-19T05:42:13;97077.09;;;22.44;72.49
1694;BME280;71975;47.068;15.408;2023-09-19T05:47:16;97077.66;;;22.17;74.15
1694;BME280;71975;47.068;15.408;2023-09-19T05:52:21;97077.72;;;22.28;74.41
1694;BME280;71975;47.068;15.408;2023-09-19T05:57:24;97084.22;;;22.20;74.85
1694;BME280;71975;47.068;15.408;2023-09-19T06:02:27;97088.34;;;22.04;75.23
1694;BME280;71975;47.068;15.408;2023-09-19T06:07:33;97085.75;;;21.95;76.55
1694;BME280;71975;47.068;15.408;2023-09-19T06:12:39;97089.22;;;22.21;75.71
1694;BME280;71975;47.068;15.408;2023-09-19T06:17:42;97097.41;;;22.41;72.76
1694;BME280;71975;47.068;15.408;2023-09-19T06:22:47;97109.84;;;22.26;72.84
1694;BME280;71975;47.068;15.408;2023-09-19T06:27:51;97111.53;;;22.55;72.47
1694;BME280;71975;47.068;15.408;2023-09-19T06:32:55;97108.78;;;22.55;72.87
1694;BME280;71975;47.068;15.408;2023-09-19T06:38:02;97129.47;;;22.39;72.19
1694;BME280;71975;47.068;15.408;2023-09-19T06:43:05;97129.25;;;22.42;72.92
1694;BME280;71975;47.068;15.408;2023-09-19T06:48:08;97137.97;;;22.67;72.33
1694;BME280;71975;47.068;15.408;2023-09-19T06:53:13;97150.91;;;22.92;71.14
1694;BME280;71975;47.068;15.408;2023-09-19T06:58:16;97174.06;;;23.00;71.28
1694;BME280;71975;47.068;15.408;2023-09-19T07:03:19;97176.38;;;23.13;69.90
1694;BME280;71975;47.068;15.408;2023-09-19T07:08:26;97177.56;;;23.48;68.57
1694;BME280;71975;47.068;15.408;2023-09-19T07:13:29;97182.59;;;23.44;66.93
1694;BME280;71975;47.068;15.408;2023-09-19T07:18:32;97183.91;;;23.12;68.68
1694;BME280;71975;47.068;15.408;2023-09-19T07:23:37;97192.06;;;22.90;70.02
1694;BME280;71975;47.068;15.408;2023-09-19T07:28:40;97201.06;;;23.33;68.99
1694;BME280;71975;47.068;15.408;2023-09-19T07:33:43;97199.44;;;23.57;67.51
1694;BME280;71975;47.068;15.408;2023-09-19T07:38:47;97212.44;;;23.40;65.32
1694;BME280;71975;47.068;15.408;2023-09-19T07:43:51;97213.25;;;23.52;67.67
1694;BME280;71975;47.068;15.408;2023-09-19T07:48:54;97226.94;;;23.83;67.50
1694;BME280;71975;47.068;15.408;2023-09-19T07:53:58;97228.78;;;24.14;66.47
1694;BME280;71975;47.068;15.408;2023-09-19T07:59:02;97235.38;;;24.88;63.15
1694;BME280;71975;47.068;15.408;2023-09-19T08:04:05;97235.88;;;26.35;57.20
1694;BME280;71975;47.068;15.408;2023-09-19T08:09:10;97240.44;;;28.45;50.64
1694;BME280;71975;47.068;15.408;2023-09-19T08:14:15;97239.91;;;30.01;46.06
1694;BME280;71975;47.068;15.408;2023-09-19T08:19:18;97241.09;;;31.22;41.96
1694;BME280;71975;47.068;15.408;2023-09-19T08:24:27;97245.56;;;31.74;39.46
1694;BME280;71975;47.068;15.408;2023-09-19T08:29:31;97255.84;;;32.15;38.66
1694;BME280;71975;47.068;15.408;2023-09-19T08:34:34;97257.66;;;31.41;39.44
1694;BME280;71975;47.068;15.408;2023-09-19T08:39:41;97249.47;;;32.07;37.70
1694;BME280;71975;47.068;15.408;2023-09-19T08:44:45;97257.13;;;32.80;36.02
1694;BME280;71975;47.068;15.408;2023-09-19T08:49:53;97258.97;;;34.63;32.10
1694;BME280;71975;47.068;15.408;2023-09-19T08:55:06;97254.50;;;35.34;30.63
1694;BME280;71975;47.068;15.408;2023-09-19T09:00:13;97269.09;;;35.40;29.40
1694;BME280;71975;47.068;15.408;2023-09-19T09:05:16;97266.81;;;35.21;30.16
1694;BME280;71975;47.068;15.408;2023-09-19T09:10:26;97262.09;;;34.99;29.85
1694;BME280;71975;47.068;15.408;2023-09-19T09:15:30;97265.19;;;34.22;30.64
1694;BME280;71975;47.068;15.408;2023-09-19T09:20:34;97268.00;;;32.25;34.33
1694;BME280;71975;47.068;15.408;2023-09-19T09:25:48;97274.28;;;31.18;38.12
1694;BME280;71975;47.068;15.408;2023-09-19T09:30:56;97276.81;;;30.34;39.95
1694;BME280;71975;47.068;15.408;2023-09-19T09:36:01;97272.44;;;29.99;39.86
1694;BME280;71975;47.068;15.408;2023-09-19T09:41:07;97279.81;;;29.18;43.01
1694;BME280;71975;47.068;15.408;2023-09-19T09:46:13;97278.72;;;28.07;44.53
1694;BME280;71975;47.068;15.408;2023-09-19T09:51:36;97287.94;;;28.15;45.56
1694;BME280;71975;47.068;15.408;2023-09-19T09:56:58;97282.94;;;27.89;47.02
1694;BME280;71975;47.068;15.408;2023-09-19T10:02:01;97288.13;;;27.98;47.26
1694;BME280;71975;47.068;15.408;2023-09-19T10:07:05;97287.94;;;28.71;44.69
1694;BME280;71975;47.068;15.408;2023-09-19T10:12:16;97288.66;;;29.61;43.50
1694;BME280;71975;47.068;15.408;2023-09-19T10:17:20;97294.78;;;29.99;39.70
1694;BME280;71975;47.068;15.408;2023-09-19T10:22:26;97292.50;;;30.37;39.58
1694;BME280;71975;47.068;15.408;2023-09-19T10:27:35;97292.09;;;32.21;36.79
1694;BME280;71975;47.068;15.408;2023-09-19T10:32:39;97294.09;;;32.12;37.03
1694;BME280;71975;47.068;15.408;2023-09-19T10:37:45;97298.22;;;31.06;38.20
1694;BME280;71975;47.068;15.408;2023-09-19T10:42:55;97288.19;;;31.31;38.51
1694;BME280;71975;47.068;15.408;2023-09-19T10:48:03;97294.41;;;33.11;32.49
1694;BME280;71975;47.068;15.408;2023-09-19T10:53:07;97282.59;;;33.58;32.03
1694;BME280;71975;47.068;15.408;2023-09-19T10:58:24;97269.09;;;33.49;31.81
1694;BME280;71975;47.068;15.408;2023-09-19T11:03:28;97279.13;;;33.97;31.79
1694;BME280;71975;47.068;15.408;2023-09-19T11:08:51;97283.03;;;34.01;30.74
1694;BME280;71975;47.068;15.408;2023-09-19T11:25:44;97285.22;;;33.33;28.95
1694;BME280;71975;47.068;15.408;2023-09-19T11:30:52;97269.84;;;33.49;29.31
1694;BME280;71975;47.068;15.408;2023-09-19T11:35:59;97261.50;;;34.44;27.29
1694;BME280;71975;47.068;15.408;2023-09-19T11:46:51;97268.50;;;33.80;29.36
1694;BME280;71975;47.068;15.408;2023-09-19T11:51:55;97261.25;;;33.39;29.15
1694;BME280;71975;47.068;15.408;2023-09-19T11:56:59;97261.69;;;33.98;28.92
1694;BME280;71975;47.068;15.408;2023-09-19T12:02:06;97249.78;;;35.37;27.43
1694;BME280;71975;47.068;15.408;2023-09-19T12:07:12;97254.47;;;35.59;26.80
1694;BME280;71975;47.068;15.408;2023-09-19T12:12:19;97233.81;;;35.56;25.96
1694;BME280;71975;47.068;15.408;2023-09-19T12:17:24;97237.75;;;34.69;26.66
1694;BME280;71975;47.068;15.408;2023-09-19T12:22:39;97234.00;;;36.36;24.67
1694;BME280;71975;47.068;15.408;2023-09-19T12:27:42;97235.63;;;35.95;25.42
1694;BME280;71975;47.068;15.408;2023-09-19T12:32:50;97231.91;;;36.90;24.08
1694;BME280;71975;47.068;15.408;2023-09-19T12:37:53;97235.25;;;37.06;23.30
1694;BME280;71975;47.068;15.408;2023-09-19T12:42:57;97242.19;;;36.95;22.80
1694;BME280;71975;47.068;15.408;2023-09-19T12:48:22;97244.75;;;38.04;21.92
1694;BME280;71975;47.068;15.408;2023-09-19T12:53:32;97229.94;;;40.54;19.42
1694;BME280;71975;47.068;15.408;2023-09-19T12:58:48;97238.53;;;38.65;20.71
1694;BME280;71975;47.068;15.408;2023-09-19T13:04:14;97242.28;;;38.58;20.51
1694;BME280;71975;47.068;15.408;2023-09-19T13:09:22;97250.56;;;36.06;23.54
1694;BME280;71975;47.068;15.408;2023-09-19T13:14:27;97250.72;;;34.65;25.00
1694;BME280;71975;47.068;15.408;2023-09-19T13:19:39;97248.00;;;33.25;27.11
1694;BME280;71975;47.068;15.408;2023-09-19T13:24:43;97262.59;;;31.48;30.21
1694;BME280;71975;47.068;15.408;2023-09-19T13:29:46;97246.31;;;30.56;32.00
1694;BME280;71975;47.068;15.408;2023-09-19T13:34:50;97232.19;;;30.82;31.67
1694;BME280;71975;47.068;15.408;2023-09-19T13:39:54;97235.22;;;30.64;32.59
1694;BME280;71975;47.068;15.408;2023-09-19T13:44:57;97239.31;;;29.82;33.70
1694;BME280;71975;47.068;15.408;2023-09-19T13:50:02;97232.56;;;30.11;34.04
1694;BME280;71975;47.068;15.408;2023-09-19T13:55:07;97243.53;;;30.23;33.41
1694;BME280;71975;47.068;15.408;2023-09-19T14:00:11;97228.47;;;29.79;34.55
1694;BME280;71975;47.068;15.408;2023-09-19T14:05:19;97232.09;;;29.21;34.68
1694;BME280;71975;47.068;15.408;2023-09-19T14:10:23;97228.16;;;29.56;34.50
1694;BME280;71975;47.068;15.408;2023-09-19T14:15:26;97229.88;;;29.59;33.15
1694;BME280;71975;47.068;15.408;2023-09-19T14:20:37;97230.56;;;28.94;34.00
1694;BME280;71975;47.068;15.408;2023-09-19T14:25:40;97230.16;;;29.16;33.88
1694;BME280;71975;47.068;15.408;2023-09-19T14:30:44;97220.06;;;29.13;34.41
1694;BME280;71975;47.068;15.408;2023-09-19T14:35:49;97234.06;;;28.94;34.68
1694;BME280;71975;47.068;15.408;2023-09-19T14:40:59;97222.94;;;28.94;37.14
1694;BME280;71975;47.068;15.408;2023-09-19T14:46:03;97218.13;;;29.08;37.50
1694;BME280;71975;47.068;15.408;2023-09-19T14:51:08;97227.91;;;29.15;36.96
1694;BME280;71975;47.068;15.408;2023-09-19T14:56:13;97229.59;;;28.09;37.92
1694;BME280;71975;47.068;15.408;2023-09-19T15:01:20;97235.97;;;27.61;38.65
1694;BME280;71975;47.068;15.408;2023-09-19T15:06:26;97233.56;;;27.52;39.32
1694;BME280;71975;47.068;15.408;2023-09-19T15:11:31;97228.16;;;27.41;39.65
1694;BME280;71975;47.068;15.408;2023-09-19T15:16:35;97242.25;;;27.68;39.15
1694;BME280;71975;47.068;15.408;2023-09-19T15:21:43;97238.66;;;27.73;39.95
1694;BME280;71975;47.068;15.408;2023-09-19T15:26:48;97232.78;;;27.28;41.32
1694;BME280;71975;47.068;15.408;2023-09-19T15:31:55;97240.09;;;26.77;45.78
1694;BME280;71975;47.068;15.408;2023-09-19T15:37:07;97239.22;;;26.58;46.60
1694;BME280;71975;47.068;15.408;2023-09-19T15:42:12;97254.31;;;26.68;46.01
1694;BME280;71975;47.068;15.408;2023-09-19T15:47:19;97248.06;;;26.62;46.42
1694;BME280;71975;47.068;15.408;2023-09-19T15:52:26;97249.56;;;26.27;46.90
1694;BME280;71975;47.068;15.408;2023-09-19T15:57:31;97264.44;;;26.24;47.10
1694;BME280;71975;47.068;15.408;2023-09-19T16:02:37;97258.03;;;26.41;46.68
1694;BME280;71975;47.068;15.408;2023-09-19T16:07:44;97253.53;;;26.38;46.51
1694;BME280;71975;47.068;15.408;2023-09-19T16:12:50;97256.38;;;26.26;46.59
1694;BME280;71975;47.068;15.408;2023-09-19T16:17:55;97272.09;;;26.13;46.93
1694;BME280;71975;47.068;15.408;2023-09-19T16:23:03;97272.94;;;25.91;48.03
1694;BME280;71975;47.068;15.408;2023-09-19T16:28:09;97281.00;;;25.89;48.75
1694;BME280;71975;47.068;15.408;2023-09-19T16:33:15;97284.81;;;25.81;49.33
1694;BME280;71975;47.068;15.408;2023-09-19T16:38:23;97286.56;;;25.84;49.43
1694;BME280;71975;47.068;15.408;2023-09-19T16:43:29;97289.38;;;25.73;48.67
1694;BME280;71975;47.068;15.408;2023-09-19T16:48:37;97286.88;;;25.69;48.92
1694;BME280;71975;47.068;15.408;2023-09-19T16:54:05;97289.13;;;25.70;49.04
1694;BME280;71975;47.068;15.408;2023-09-19T16:59:11;97303.47;;;25.80;49.00
1694;BME280;71975;47.068;15.408;2023-09-19T17:04:18;97293.69;;;25.68;48.69
1694;BME280;71975;47.068;15.408;2023-09-19T17:09:29;97307.53;;;25.79;48.89
1694;BME280;71975;47.068;15.408;2023-09-19T17:14:37;97314.03;;;25.87;49.13
1694;BME280;71975;47.068;15.408;2023-09-19T17:19:45;97311.09;;;25.68;49.78
1694;BME280;71975;47.068;15.408;2023-09-19T17:24:53;97330.25;;;25.72;49.25
1694;BME280;71975;47.068;15.408;2023-09-19T17:29:59;97326.00;;;25.60;50.82
1694;BME280;71975;47.068;15.408;2023-09-19T17:35:06;97328.97;;;25.67;50.84
1694;BME280;71975;47.068;15.408;2023-09-19T17:40:15;97320.88;;;25.86;50.47
1694;BME280;71975;47.068;15.408;2023-09-19T17:45:23;97314.03;;;25.93;51.99
1694;BME280;71975;47.068;15.408;2023-09-19T17:50:33;97323.63;;;25.86;52.39
1694;BME280;71975;47.068;15.408;2023-09-19T17:55:42;97331.25;;;25.63;54.42
1694;BME280;71975;47.068;15.408;2023-09-19T18:00:48;97346.16;;;25.22;55.79
1694;BME280;71975;47.068;15.408;2023-09-19T18:05:54;97360.50;;;25.15;56.05
1694;BME280;71975;47.068;15.408;2023-09-19T18:11:03;97362.78;;;25.11;56.31
1694;BME280;71975;47.068;15.408;2023-09-19T18:16:18;97364.56;;;25.14;56.44
1694;BME280;71975;47.068;15.408;2023-09-19T18:21:28;97373.38;;;25.51;55.00
1694;BME280;71975;47.068;15.408;2023-09-19T18:26:39;97376.66;;;25.33;55.51
1694;BME280;71975;47.068;15.408;2023-09-19T18:31:45;97380.16;;;25.39;55.39
1694;BME280;71975;47.068;15.408;2023-09-19T18:36:53;97379.44;;;24.99;56.44
1694;BME280;71975;47.068;15.408;2023-09-19T18:42:03;97384.66;;;24.75;58.09
1694;BME280;71975;47.068;15.408;2023-09-19T18:47:12;97396.66;;;24.50;59.02
1694;BME280;71975;47.068;15.408;2023-09-19T18:52:20;97395.00;;;24.16;60.28
1694;BME280;71975;47.068;15.408;2023-09-19T18:57:33;97401.22;;;24.00;61.52
1694;BME280;71975;47.068;15.408;2023-09-19T19:02:39;97404.41;;;23.87;61.89
1694;BME280;71975;47.068;15.408;2023-09-19T19:07:53;97399.03;;;23.72;63.14
1694;BME280;71975;47.068;15.408;2023-09-19T19:13:03;97395.91;;;23.59;63.87
1694;BME280;71975;47.068;15.408;2023-09-19T19:18:11;97396.78;;;23.71;63.04
1694;BME280;71975;47.068;15.408;2023-09-19T19:23:20;97400.00;;;23.69;63.48
1694;BME280;71975;47.068;15.408;2023-09-19T19:28:27;97400.22;;;23.60;64.19
1694;BME280;71975;47.068;15.408;2023-09-19T19:33:33;97408.19;;;23.53;64.60
1694;BME280;71975;47.068;15.408;2023-09-19T19:38:39;97418.19;;;23.45;64.49
1694;BME280;71975;47.068;15.408;2023-09-19T19:43:46;97414.38;;;23.42;64.59
1694;BME280;71975;47.068;15.408;2023-09-19T19:48:52;97419.28;;;23.27;65.78
1694;BME280;71975;47.068;15.408;2023-09-19T19:54:01;97429.69;;;23.12;65.94
1694;BME280;71975;47.068;15.408;2023-09-19T19:59:10;97415.78;;;23.01;66.71
1694;BME280;71975;47.068;15.408;2023-09-19T20:04:16;97421.97;;;22.90;67.37
1694;BME280;71975;47.068;15.408;2023-09-19T20:09:26;97413.88;;;22.87;67.54
1694;BME280;71975;47.068;15.408;2023-09-19T20:14:34;97407.13;;;22.88;67.27
1694;BME280;71975;47.068;15.408;2023-09-19T20:19:42;97420.06;;;22.76;67.11
1694;BME280;71975;47.068;15.408;2023-09-19T20:24:50;97427.31;;;22.74;67.47
1694;BME280;71975;47.068;15.408;2023-09-19T20:29:59;97420.06;;;22.76;67.25
1694;BME280;71975;47.068;15.408;2023-09-19T20:35:11;97416.53;;;22.76;67.24
1694;BME280;71975;47.068;15.408;2023-09-19T20:40:17;97426.81;;;22.75;66.99
1694;BME280;71975;47.068;15.408;2023-09-19T20:45:27;97424.81;;;22.76;66.60
1694;BME280;71975;47.068;15.408;2023-09-19T20:50:32;97423.19;;;22.64;67.32
1694;BME280;71975;47.068;15.408;2023-09-19T20:55:38;97433.25;;;22.46;68.47
1694;BME280;71975;47.068;15.408;2023-09-19T21:00:46;97432.75;;;22.48;67.99
1694;BME280;71975;47.068;15.408;2023-09-19T21:05:59;97427.22;;;22.48;68.00
1694;BME280;71975;47.068;15.408;2023-09-19T21:11:11;97432.72;;;22.42;68.23
1694;BME280;71975;47.068;15.408;2023-09-19T21:16:18;97437.53;;;22.27;69.02
1694;BME280;71975;47.068;15.408;2023-09-19T21:21:23;97439.75;;;22.23;69.15
1694;BME280;71975;47.068;15.408;2023-09-19T21:26:26;97437.88;;;22.15;69.23
1694;BME280;71975;47.068;15.408;2023-09-19T21:31:30;97435.44;;;22.02;69.73
1694;BME280;71975;47.068;15.408;2023-09-19T21:36:35;97434.88;;;21.98;69.95
1694;BME280;71975;47.068;15.408;2023-09-19T21:41:38;97429.38;;;21.98;69.91
1694;BME280;71975;47.068;15.408;2023-09-19T21:46:44;97430.47;;;21.86;70.41
1694;BME280;71975;47.068;15.408;2023-09-19T21:51:48;97429.78;;;21.91;69.88
1694;BME280;71975;47.068;15.408;2023-09-19T21:56:50;97425.78;;;21.77;70.39
1694;BME280;71975;47.068;15.408;2023-09-19T22:01:55;97424.56;;;21.78;70.48
1694;BME280;71975;47.068;15.408;2023-09-19T22:06:58;97432.06;;;21.78;70.35
1694;BME280;71975;47.068;15.408;2023-09-19T22:12:03;97426.94;;;21.71;70.27
1694;BME280;71975;47.068;15.408;2023-09-19T22:17:09;97426.78;;;21.60;70.56
1694;BME280;71975;47.068;15.408;2023-09-19T22:22:14;97428.53;;;21.43;71.19
1694;BME280;71975;47.068;15.408;2023-09-19T22:27:19;97419.50;;;21.42;71.41
1694;BME280;71975;47.068;15.408;2023-09-19T22:32:23;97432.53;;;21.27;71.73
1694;BME280;71975;47.068;15.408;2023-09-19T22:37:26;97432.06;;;21.43;70.59
1694;BME280;71975;47.068;15.408;2023-09-19T22:42:30;97423.97;;;21.40;70.39
1694;BME280;71975;47.068;15.408;2023-09-19T22:47:34;97436.25;;;21.39;70.43
1694;BME280;71975;47.068;15.408;2023-09-19T22:52:37;97442.31;;;21.43;70.13
1694;BME280;71975;47.068;15.408;2023-09-19T22:57:40;97444.84;;;21.32;70.47
1694;BME280;71975;47.068;15.408;2023-09-19T23:02:46;97446.78;;;21.26;70.57
1694;BME280;71975;47.068;15.408;2023-09-19T23:07:49;97454.94;;;21.05;71.82
1694;BME280;71975;47.068;15.408;2023-09-19T23:12:58;97443.75;;;21.09;71.51
1694;BME280;71975;47.068;15.408;2023-09-19T23:18:02;97454.34;;;21.01;71.55
1694;BME280;71975;47.068;15.408;2023-09-19T23:23:12;97448.84;;;21.01;71.44
1694;BME280;71975;47.068;15.408;2023-09-19T23:28:17;97448.72;;;20.96;71.24
1694;BME280;71975;47.068;15.408;2023-09-19T23:33:22;97451.47;;;20.96;71.13
1694;BME280;71975;47.068;15.408;2023-09-19T23:38:25;97451.31;;;20.99;70.48
1694;BME280;71975;47.068;15.408;2023-09-19T23:43:28;97462.41;;;21.05;70.04
1694;BME280;71975;47.068;15.408;2023-09-19T23:48:35;97461.31;;;21.11;69.38
1694;BME280;71975;47.068;15.408;2023-09-19T23:53:42;97460.78;;;20.98;69.62
1694;BME280;71975;47.068;15.408;2023-09-19T23:58:45;97457.56;;;21.00;69.69
